sensor_id;sensor_type;location;lat;lon;timestamp;P1;durP1;ratioP1;P2;durP2;ratioP2
13263;SDS011;6700;51.988;7.646;2023-09-07T00:01:30;6.73;;;4.37;;
13263;SDS011;6700;51.988;7.646;2023-09-07T00:03:58;8.13;;;4.10;;
13263;SDS011;6700;51.988;7.646;2023-09-07T00:06:25;9.33;;;4.27;;
13263;SDS011;6700;51.988;7.646;2023-09-07T00:08:53;4.67;;;4.27;;
13263;SDS011;6700;51.988;7.646;2023-09-07T00:11:20;7.27;;;4.70;;
13263;SDS011;6700;51.988;7.646;2023-09-07T00:13:47;4.90;;;4.50;;
13263;SDS011;6700;51.988;7.646;2023-09-07T00:16:14;5.13;;;4.30;;
13263;SDS011;6700;51.988;7.646;2023-09-07T00:18:42;5.80;;;4.20;;
13263;SDS011;6700;51.988;7.646;2023-09-07T00:21:09;5.60;;;4.93;;
13263;SDS011;6700;51.988;7.646;2023-09-07T00:23:36;4.90;;;4.40;;
13263;SDS011;6700;51.988;7.646;2023-09-07T00:26:03;4.97;;;4.43;;
13263;SDS011;6700;51.988;7.646;2023-09-07T00:28:30;6.37;;;4.17;;
13263;SDS011;6700;51.988;7.646;2023-09-07T00:30:58;8.77;;;5.03;;
13263;SDS011;6700;51.988;7.646;2023-09-07T00:33:25;7.50;;;4.50;;
13263;SDS011;6700;51.988;7.646;2023-09-07T00:35:53;4.30;;;3.90;;
13263;SDS011;6700;51.988;7.646;2023-09-07T00:38:20;5.33;;;4.30;;
13263;SDS011;6700;51.988;7.646;2023-09-07T00:40:47;5.17;;;4.30;;
13263;SDS011;6700;51.988;7.646;2023-09-07T00:43:14;5.47;;;4.23;;
13263;SDS011;6700;51.988;7.646;2023-09-07T00:45:41;4.40;;;4.00;;
13263;SDS011;6700;51.988;7.646;2023-09-07T00:48:09;5.10;;;4.47;;
13263;SDS011;6700;51.988;7.646;2023-09-07T00:50:38;6.23;;;4.90;;
13263;SDS011;6700;51.988;7.646;2023-09-07T00:53:05;6.80;;;5.00;;
13263;SDS011;6700;51.988;7.646;2023-09-07T00:55:33;8.20;;;4.63;;
13263;SDS011;6700;51.988;7.646;2023-09-07T00:58:01;4.77;;;4.37;;
13263;SDS011;6700;51.988;7.646;2023-09-07T01:00:29;5.47;;;4.60;;
13263;SDS011;6700;51.988;7.646;2023-09-07T01:02:56;7.03;;;5.03;;
13263;SDS011;6700;51.988;7.646;2023-09-07T01:05:32;5.80;;;4.20;;
13263;SDS011;6700;51.988;7.646;2023-09-07T01:08:07;5.47;;;4.23;;
13263;SDS011;6700;51.988;7.646;2023-09-07T01:10:36;5.00;;;4.50;;
13263;SDS011;6700;51.988;7.646;2023-09-07T01:13:03;5.00;;;4.60;;
13263;SDS011;6700;51.988;7.646;2023-09-07T01:15:31;5.80;;;4.30;;
13263;SDS011;6700;51.988;7.646;2023-09-07T01:17:58;4.60;;;4.07;;
13263;SDS011;6700;51.988;7.646;2023-09-07T01:20:45;5.73;;;5.03;;
13263;SDS011;6700;51.988;7.646;2023-09-07T01:23:13;4.97;;;4.57;;
13263;SDS011;6700;51.988;7.646;2023-09-07T01:25:40;6.00;;;5.10;;
13263;SDS011;6700;51.988;7.646;2023-09-07T01:28:08;4.73;;;4.30;;
13263;SDS011;6700;51.988;7.646;2023-09-07T01:30:36;5.50;;;4.30;;
13263;SDS011;6700;51.988;7.646;2023-09-07T01:33:05;6.47;;;4.90;;
13263;SDS011;6700;51.988;7.646;2023-09-07T01:35:32;5.13;;;4.63;;
13263;SDS011;6700;51.988;7.646;2023-09-07T01:38:00;5.27;;;4.73;;
13263;SDS011;6700;51.988;7.646;2023-09-07T01:40:28;7.27;;;5.70;;
13263;SDS011;6700;51.988;7.646;2023-09-07T01:42:55;8.23;;;5.50;;
13263;SDS011;6700;51.988;7.646;2023-09-07T01:45:22;9.83;;;7.10;;
13263;SDS011;6700;51.988;7.646;2023-09-07T01:47:50;8.03;;;6.13;;
13263;SDS011;6700;51.988;7.646;2023-09-07T01:50:18;8.93;;;6.83;;
13263;SDS011;6700;51.988;7.646;2023-09-07T01:52:46;8.93;;;6.27;;
13263;SDS011;6700;51.988;7.646;2023-09-07T01:55:14;7.33;;;6.43;;
13263;SDS011;6700;51.988;7.646;2023-09-07T01:57:42;7.63;;;6.73;;
13263;SDS011;6700;51.988;7.646;2023-09-07T02:00:10;6.10;;;5.50;;
13263;SDS011;6700;51.988;7.646;2023-09-07T02:02:37;6.67;;;5.83;;
13263;SDS011;6700;51.988;7.646;2023-09-07T02:05:05;7.47;;;5.13;;
13263;SDS011;6700;51.988;7.646;2023-09-07T02:07:32;6.93;;;5.47;;
13263;SDS011;6700;51.988;7.646;2023-09-07T02:10:00;8.30;;;5.17;;
13263;SDS011;6700;51.988;7.646;2023-09-07T02:12:29;6.23;;;4.97;;
13263;SDS011;6700;51.988;7.646;2023-09-07T02:14:57;7.23;;;5.57;;
13263;SDS011;6700;51.988;7.646;2023-09-07T02:17:25;5.83;;;5.23;;
13263;SDS011;6700;51.988;7.646;2023-09-07T02:19:52;5.10;;;4.60;;
13263;SDS011;6700;51.988;7.646;2023-09-07T02:22:19;4.93;;;4.43;;
13263;SDS011;6700;51.988;7.646;2023-09-07T02:24:47;6.47;;;5.50;;
13263;SDS011;6700;51.988;7.646;2023-09-07T02:27:17;5.10;;;4.70;;
13263;SDS011;6700;51.988;7.646;2023-09-07T02:29:44;5.17;;;4.67;;
13263;SDS011;6700;51.988;7.646;2023-09-07T02:32:11;5.10;;;4.63;;
13263;SDS011;6700;51.988;7.646;2023-09-07T02:34:38;5.17;;;4.43;;
13263;SDS011;6700;51.988;7.646;2023-09-07T02:37:05;7.63;;;4.97;;
13263;SDS011;6700;51.988;7.646;2023-09-07T02:39:33;5.57;;;4.80;;
13263;SDS011;6700;51.988;7.646;2023-09-07T02:42:00;5.67;;;5.07;;
13263;SDS011;6700;51.988;7.646;2023-09-07T02:44:27;5.23;;;4.70;;
13263;SDS011;6700;51.988;7.646;2023-09-07T02:46:55;5.87;;;4.63;;
13263;SDS011;6700;51.988;7.646;2023-09-07T02:49:22;5.10;;;4.60;;
13263;SDS011;6700;51.988;7.646;2023-09-07T02:51:49;4.90;;;4.50;;
13263;SDS011;6700;51.988;7.646;2023-09-07T02:54:16;5.63;;;4.93;;
13263;SDS011;6700;51.988;7.646;2023-09-07T02:56:43;4.90;;;4.50;;
13263;SDS011;6700;51.988;7.646;2023-09-07T02:59:10;5.20;;;4.70;;
13263;SDS011;6700;51.988;7.646;2023-09-07T03:01:38;6.40;;;5.07;;
13263;SDS011;6700;51.988;7.646;2023-09-07T03:04:06;6.40;;;4.80;;
13263;SDS011;6700;51.988;7.646;2023-09-07T03:06:33;5.27;;;4.77;;
13263;SDS011;6700;51.988;7.646;2023-09-07T03:09:00;7.00;;;5.30;;
13263;SDS011;6700;51.988;7.646;2023-09-07T03:11:28;7.30;;;5.13;;
13263;SDS011;6700;51.988;7.646;2023-09-07T03:14:00;5.17;;;4.47;;
13263;SDS011;6700;51.988;7.646;2023-09-07T03:16:27;6.73;;;5.67;;
13263;SDS011;6700;51.988;7.646;2023-09-07T03:18:56;5.40;;;4.90;;
13263;SDS011;6700;51.988;7.646;2023-09-07T03:21:23;4.90;;;4.50;;
13263;SDS011;6700;51.988;7.646;2023-09-07T03:23:56;6.93;;;4.70;;
13263;SDS011;6700;51.988;7.646;2023-09-07T03:26:23;5.40;;;4.90;;
13263;SDS011;6700;51.988;7.646;2023-09-07T03:28:51;5.50;;;4.70;;
13263;SDS011;6700;51.988;7.646;2023-09-07T03:31:21;6.20;;;5.60;;
13263;SDS011;6700;51.988;7.646;2023-09-07T03:33:48;5.43;;;5.00;;
13263;SDS011;6700;51.988;7.646;2023-09-07T03:36:16;4.60;;;4.23;;
13263;SDS011;6700;51.988;7.646;2023-09-07T03:38:43;5.60;;;4.93;;
13263;SDS011;6700;51.988;7.646;2023-09-07T03:41:10;6.93;;;4.83;;
13263;SDS011;6700;51.988;7.646;2023-09-07T03:43:37;5.30;;;4.90;;
13263;SDS011;6700;51.988;7.646;2023-09-07T03:46:05;5.70;;;5.03;;
13263;SDS011;6700;51.988;7.646;2023-09-07T03:48:32;5.23;;;4.73;;
13263;SDS011;6700;51.988;7.646;2023-09-07T03:51:06;5.20;;;4.70;;
13263;SDS011;6700;51.988;7.646;2023-09-07T03:53:33;5.10;;;4.63;;
13263;SDS011;6700;51.988;7.646;2023-09-07T03:56:01;5.73;;;5.10;;
13263;SDS011;6700;51.988;7.646;2023-09-07T03:58:30;6.00;;;5.40;;
13263;SDS011;6700;51.988;7.646;2023-09-07T04:00:58;5.23;;;4.77;;
13263;SDS011;6700;51.988;7.646;2023-09-07T04:03:26;6.83;;;5.27;;
13263;SDS011;6700;51.988;7.646;2023-09-07T04:05:53;5.63;;;5.13;;
13263;SDS011;6700;51.988;7.646;2023-09-07T04:08:21;5.73;;;5.20;;
13263;SDS011;6700;51.988;7.646;2023-09-07T04:10:48;5.40;;;4.90;;
13263;SDS011;6700;51.988;7.646;2023-09-07T04:13:15;5.90;;;5.20;;
13263;SDS011;6700;51.988;7.646;2023-09-07T04:15:43;7.53;;;5.80;;
13263;SDS011;6700;51.988;7.646;2023-09-07T04:18:11;6.60;;;4.90;;
13263;SDS011;6700;51.988;7.646;2023-09-07T04:20:42;6.30;;;5.70;;
13263;SDS011;6700;51.988;7.646;2023-09-07T04:23:10;7.97;;;5.57;;
13263;SDS011;6700;51.988;7.646;2023-09-07T04:25:37;6.80;;;6.00;;
13263;SDS011;6700;51.988;7.646;2023-09-07T04:28:07;6.10;;;4.90;;
13263;SDS011;6700;51.988;7.646;2023-09-07T04:30:38;5.97;;;5.37;;
13263;SDS011;6700;51.988;7.646;2023-09-07T04:33:05;5.97;;;5.40;;
13263;SDS011;6700;51.988;7.646;2023-09-07T04:35:33;7.37;;;6.10;;
13263;SDS011;6700;51.988;7.646;2023-09-07T04:38:00;6.80;;;5.53;;
13263;SDS011;6700;51.988;7.646;2023-09-07T04:40:27;5.97;;;5.37;;
13263;SDS011;6700;51.988;7.646;2023-09-07T04:42:54;5.73;;;5.13;;
13263;SDS011;6700;51.988;7.646;2023-09-07T04:45:21;6.97;;;5.30;;
13263;SDS011;6700;51.988;7.646;2023-09-07T04:47:49;8.67;;;7.03;;
13263;SDS011;6700;51.988;7.646;2023-09-07T04:50:17;10.33;;;8.03;;
13263;SDS011;6700;51.988;7.646;2023-09-07T04:52:44;10.33;;;8.00;;
13263;SDS011;6700;51.988;7.646;2023-09-07T04:55:11;8.80;;;7.23;;
13263;SDS011;6700;51.988;7.646;2023-09-07T04:57:38;10.03;;;6.40;;
13263;SDS011;6700;51.988;7.646;2023-09-07T05:00:06;10.20;;;5.83;;
13263;SDS011;6700;51.988;7.646;2023-09-07T05:02:35;7.63;;;5.80;;
13263;SDS011;6700;51.988;7.646;2023-09-07T05:05:08;9.47;;;6.17;;
13263;SDS011;6700;51.988;7.646;2023-09-07T05:07:35;7.47;;;6.33;;
13263;SDS011;6700;51.988;7.646;2023-09-07T05:10:02;6.63;;;5.97;;
13263;SDS011;6700;51.988;7.646;2023-09-07T05:12:30;11.13;;;6.17;;
13263;SDS011;6700;51.988;7.646;2023-09-07T05:14:57;7.03;;;6.33;;
13263;SDS011;6700;51.988;7.646;2023-09-07T05:17:26;6.93;;;5.57;;
13263;SDS011;6700;51.988;7.646;2023-09-07T05:19:53;7.20;;;5.70;;
13263;SDS011;6700;51.988;7.646;2023-09-07T05:22:20;10.10;;;7.00;;
13263;SDS011;6700;51.988;7.646;2023-09-07T05:24:48;7.40;;;5.93;;
13263;SDS011;6700;51.988;7.646;2023-09-07T05:27:15;7.13;;;5.63;;
13263;SDS011;6700;51.988;7.646;2023-09-07T05:29:42;8.40;;;5.53;;
13263;SDS011;6700;51.988;7.646;2023-09-07T05:32:10;6.33;;;5.73;;
13263;SDS011;6700;51.988;7.646;2023-09-07T05:34:37;7.63;;;5.93;;
13263;SDS011;6700;51.988;7.646;2023-09-07T05:37:04;8.23;;;6.70;;
13263;SDS011;6700;51.988;7.646;2023-09-07T05:39:31;6.50;;;5.90;;
13263;SDS011;6700;51.988;7.646;2023-09-07T05:41:59;7.80;;;5.93;;
13263;SDS011;6700;51.988;7.646;2023-09-07T05:44:26;7.53;;;6.73;;
13263;SDS011;6700;51.988;7.646;2023-09-07T05:46:53;7.70;;;6.67;;
13263;SDS011;6700;51.988;7.646;2023-09-07T05:49:20;11.17;;;6.27;;
13263;SDS011;6700;51.988;7.646;2023-09-07T05:51:48;9.73;;;6.30;;
13263;SDS011;6700;51.988;7.646;2023-09-07T05:54:15;7.30;;;5.53;;
13263;SDS011;6700;51.988;7.646;2023-09-07T05:56:42;7.87;;;6.40;;
13263;SDS011;6700;51.988;7.646;2023-09-07T05:59:09;11.53;;;6.53;;
13263;SDS011;6700;51.988;7.646;2023-09-07T06:01:37;7.37;;;6.30;;
13263;SDS011;6700;51.988;7.646;2023-09-07T06:04:06;8.43;;;6.23;;
13263;SDS011;6700;51.988;7.646;2023-09-07T06:06:33;7.70;;;6.53;;
13263;SDS011;6700;51.988;7.646;2023-09-07T06:09:00;8.57;;;6.23;;
13263;SDS011;6700;51.988;7.646;2023-09-07T06:11:30;8.07;;;6.70;;
13263;SDS011;6700;51.988;7.646;2023-09-07T06:13:58;9.83;;;6.67;;
13263;SDS011;6700;51.988;7.646;2023-09-07T06:16:25;8.43;;;6.07;;
13263;SDS011;6700;51.988;7.646;2023-09-07T06:18:52;7.37;;;6.67;;
13263;SDS011;6700;51.988;7.646;2023-09-07T06:21:20;8.97;;;6.10;;
13263;SDS011;6700;51.988;7.646;2023-09-07T06:23:47;7.87;;;6.70;;
13263;SDS011;6700;51.988;7.646;2023-09-07T06:26:14;6.80;;;5.97;;
13263;SDS011;6700;51.988;7.646;2023-09-07T06:28:44;8.70;;;5.93;;
13263;SDS011;6700;51.988;7.646;2023-09-07T06:31:11;7.83;;;6.53;;
13263;SDS011;6700;51.988;7.646;2023-09-07T06:33:41;6.60;;;5.90;;
13263;SDS011;6700;51.988;7.646;2023-09-07T06:36:08;6.13;;;5.53;;
13263;SDS011;6700;51.988;7.646;2023-09-07T06:38:35;8.83;;;6.27;;
13263;SDS011;6700;51.988;7.646;2023-09-07T06:41:03;8.03;;;6.43;;
13263;SDS011;6700;51.988;7.646;2023-09-07T06:43:31;11.80;;;6.60;;
13263;SDS011;6700;51.988;7.646;2023-09-07T06:46:05;5.77;;;5.27;;
13263;SDS011;6700;51.988;7.646;2023-09-07T06:48:35;6.43;;;5.83;;
13263;SDS011;6700;51.988;7.646;2023-09-07T06:51:02;6.27;;;5.60;;
13263;SDS011;6700;51.988;7.646;2023-09-07T06:53:30;6.97;;;6.07;;
13263;SDS011;6700;51.988;7.646;2023-09-07T06:56:17;9.43;;;5.83;;
13263;SDS011;6700;51.988;7.646;2023-09-07T06:58:45;8.13;;;5.90;;
13263;SDS011;6700;51.988;7.646;2023-09-07T07:01:12;6.87;;;6.17;;
13263;SDS011;6700;51.988;7.646;2023-09-07T07:03:39;6.87;;;6.17;;
13263;SDS011;6700;51.988;7.646;2023-09-07T07:06:07;7.53;;;6.50;;
13263;SDS011;6700;51.988;7.646;2023-09-07T07:08:34;6.23;;;5.63;;
13263;SDS011;6700;51.988;7.646;2023-09-07T07:11:01;6.13;;;5.43;;
13263;SDS011;6700;51.988;7.646;2023-09-07T07:13:28;5.77;;;5.17;;
13263;SDS011;6700;51.988;7.646;2023-09-07T07:15:56;7.63;;;5.77;;
13263;SDS011;6700;51.988;7.646;2023-09-07T07:18:35;5.87;;;5.13;;
13263;SDS011;6700;51.988;7.646;2023-09-07T07:21:03;11.17;;;6.20;;
13263;SDS011;6700;51.988;7.646;2023-09-07T07:23:30;6.33;;;5.17;;
13263;SDS011;6700;51.988;7.646;2023-09-07T07:25:58;8.20;;;6.07;;
13263;SDS011;6700;51.988;7.646;2023-09-07T07:28:25;5.50;;;4.87;;
13263;SDS011;6700;51.988;7.646;2023-09-07T07:30:52;5.50;;;5.00;;
13263;SDS011;6700;51.988;7.646;2023-09-07T07:33:20;5.43;;;4.40;;
13263;SDS011;6700;51.988;7.646;2023-09-07T07:35:47;26.97;;;6.80;;
13263;SDS011;6700;51.988;7.646;2023-09-07T07:38:14;7.13;;;4.83;;
13263;SDS011;6700;51.988;7.646;2023-09-07T07:40:42;9.70;;;6.33;;
13263;SDS011;6700;51.988;7.646;2023-09-07T07:43:09;8.50;;;5.13;;
13263;SDS011;6700;51.988;7.646;2023-09-07T07:45:37;9.57;;;5.10;;
13263;SDS011;6700;51.988;7.646;2023-09-07T07:48:05;6.17;;;4.90;;
13263;SDS011;6700;51.988;7.646;2023-09-07T07:50:37;5.30;;;4.67;;
13263;SDS011;6700;51.988;7.646;2023-09-07T07:53:06;5.43;;;4.90;;
13263;SDS011;6700;51.988;7.646;2023-09-07T07:55:36;6.70;;;5.05;;
13263;SDS011;6700;51.988;7.646;2023-09-07T07:58:05;5.83;;;4.63;;
13263;SDS011;6700;51.988;7.646;2023-09-07T08:00:35;7.20;;;5.10;;
13263;SDS011;6700;51.988;7.646;2023-09-07T08:03:03;6.18;;;4.65;;
13263;SDS011;6700;51.988;7.646;2023-09-07T08:05:34;5.13;;;4.60;;
13263;SDS011;6700;51.988;7.646;2023-09-07T08:08:01;7.13;;;4.85;;
13263;SDS011;6700;51.988;7.646;2023-09-07T08:10:29;4.78;;;4.28;;
13263;SDS011;6700;51.988;7.646;2023-09-07T08:12:57;7.10;;;4.57;;
13263;SDS011;6700;51.988;7.646;2023-09-07T08:15:27;4.65;;;4.22;;
13263;SDS011;6700;51.988;7.646;2023-09-07T08:17:54;4.85;;;4.45;;
13263;SDS011;6700;51.988;7.646;2023-09-07T08:20:24;5.68;;;4.55;;
13263;SDS011;6700;51.988;7.646;2023-09-07T08:22:52;6.95;;;5.30;;
13263;SDS011;6700;51.988;7.646;2023-09-07T08:25:19;5.70;;;5.20;;
13263;SDS011;6700;51.988;7.646;2023-09-07T08:27:46;5.25;;;4.55;;
13263;SDS011;6700;51.988;7.646;2023-09-07T08:30:19;5.18;;;4.20;;
13263;SDS011;6700;51.988;7.646;2023-09-07T08:32:52;7.97;;;4.70;;
13263;SDS011;6700;51.988;7.646;2023-09-07T08:35:22;5.07;;;4.50;;
13263;SDS011;6700;51.988;7.646;2023-09-07T08:37:54;4.30;;;3.90;;
13263;SDS011;6700;51.988;7.646;2023-09-07T08:40:24;4.85;;;4.30;;
13263;SDS011;6700;51.988;7.646;2023-09-07T08:42:53;4.65;;;4.25;;
13263;SDS011;6700;51.988;7.646;2023-09-07T08:45:22;5.25;;;4.75;;
13263;SDS011;6700;51.988;7.646;2023-09-07T08:47:54;6.53;;;4.05;;
13263;SDS011;6700;51.988;7.646;2023-09-07T08:50:25;8.27;;;4.20;;
13263;SDS011;6700;51.988;7.646;2023-09-07T08:52:52;4.68;;;4.20;;
13263;SDS011;6700;51.988;7.646;2023-09-07T08:55:20;5.03;;;4.07;;
13263;SDS011;6700;51.988;7.646;2023-09-07T08:57:48;5.05;;;4.55;;
13263;SDS011;6700;51.988;7.646;2023-09-07T09:00:15;5.82;;;4.30;;
13263;SDS011;6700;51.988;7.646;2023-09-07T09:02:46;5.05;;;3.88;;
13263;SDS011;6700;51.988;7.646;2023-09-07T09:05:17;4.82;;;4.35;;
13263;SDS011;6700;51.988;7.646;2023-09-07T09:07:46;5.82;;;4.13;;
13263;SDS011;6700;51.988;7.646;2023-09-07T09:10:17;6.22;;;5.00;;
13263;SDS011;6700;51.988;7.646;2023-09-07T09:12:45;5.75;;;4.85;;
13263;SDS011;6700;51.988;7.646;2023-09-07T09:15:13;6.88;;;4.90;;
13263;SDS011;6700;51.988;7.646;2023-09-07T09:17:40;5.63;;;4.40;;
13263;SDS011;6700;51.988;7.646;2023-09-07T09:20:19;4.70;;;4.30;;
13263;SDS011;6700;51.988;7.646;2023-09-07T09:22:47;6.07;;;4.32;;
13263;SDS011;6700;51.988;7.646;2023-09-07T09:25:14;7.43;;;4.43;;
13263;SDS011;6700;51.988;7.646;2023-09-07T09:27:41;4.65;;;4.15;;
13263;SDS011;6700;51.988;7.646;2023-09-07T09:30:09;4.53;;;4.13;;
13263;SDS011;6700;51.988;7.646;2023-09-07T09:32:36;4.60;;;4.20;;
13263;SDS011;6700;51.988;7.646;2023-09-07T09:35:05;6.55;;;4.00;;
13263;SDS011;6700;51.988;7.646;2023-09-07T09:37:42;5.00;;;4.55;;
13263;SDS011;6700;51.988;7.646;2023-09-07T09:40:10;5.07;;;4.57;;
13263;SDS011;6700;51.988;7.646;2023-09-07T09:42:37;4.75;;;4.35;;
13263;SDS011;6700;51.988;7.646;2023-09-07T09:45:05;6.07;;;3.80;;
13263;SDS011;6700;51.988;7.646;2023-09-07T09:47:36;5.13;;;3.83;;
13263;SDS011;6700;51.988;7.646;2023-09-07T09:50:06;4.63;;;4.22;;
13263;SDS011;6700;51.988;7.646;2023-09-07T09:52:34;4.75;;;4.30;;
13263;SDS011;6700;51.988;7.646;2023-09-07T09:55:06;4.55;;;4.15;;
13263;SDS011;6700;51.988;7.646;2023-09-07T09:57:35;7.10;;;4.43;;
13263;SDS011;6700;51.988;7.646;2023-09-07T10:00:06;4.38;;;3.97;;
13263;SDS011;6700;51.988;7.646;2023-09-07T10:05:34;4.18;;;3.78;;
13263;SDS011;6700;51.988;7.646;2023-09-07T10:08:03;7.20;;;4.40;;
13263;SDS011;6700;51.988;7.646;2023-09-07T10:10:35;8.25;;;3.75;;
13263;SDS011;6700;51.988;7.646;2023-09-07T10:13:03;4.82;;;4.22;;
13263;SDS011;6700;51.988;7.646;2023-09-07T10:15:31;4.38;;;3.67;;
13263;SDS011;6700;51.988;7.646;2023-09-07T10:18:04;4.53;;;4.13;;
13263;SDS011;6700;51.988;7.646;2023-09-07T10:20:35;5.00;;;4.30;;
13263;SDS011;6700;51.988;7.646;2023-09-07T10:23:14;5.80;;;4.15;;
13263;SDS011;6700;51.988;7.646;2023-09-07T10:25:48;5.88;;;3.63;;
13263;SDS011;6700;51.988;7.646;2023-09-07T10:28:24;4.78;;;3.95;;
13263;SDS011;6700;51.988;7.646;2023-09-07T10:31:03;6.53;;;3.70;;
13263;SDS011;6700;51.988;7.646;2023-09-07T10:33:34;4.65;;;3.88;;
13263;SDS011;6700;51.988;7.646;2023-09-07T10:36:03;4.40;;;4.00;;
13263;SDS011;6700;51.988;7.646;2023-09-07T10:38:34;4.53;;;4.07;;
13263;SDS011;6700;51.988;7.646;2023-09-07T10:41:03;4.35;;;3.95;;
13263;SDS011;6700;51.988;7.646;2023-09-07T10:43:34;5.25;;;4.10;;
13263;SDS011;6700;51.988;7.646;2023-09-07T10:46:02;4.35;;;3.95;;
13263;SDS011;6700;51.988;7.646;2023-09-07T10:48:31;5.13;;;4.05;;
13263;SDS011;6700;51.988;7.646;2023-09-07T10:50:58;3.97;;;3.58;;
13263;SDS011;6700;51.988;7.646;2023-09-07T10:53:27;5.03;;;4.13;;
13263;SDS011;6700;51.988;7.646;2023-09-07T10:55:59;4.82;;;4.35;;
13263;SDS011;6700;51.988;7.646;2023-09-07T10:58:34;4.28;;;3.88;;
13263;SDS011;6700;51.988;7.646;2023-09-07T11:01:04;4.25;;;3.85;;
13263;SDS011;6700;51.988;7.646;2023-09-07T11:03:31;4.22;;;3.88;;
13263;SDS011;6700;51.988;7.646;2023-09-07T11:06:01;4.70;;;4.05;;
13263;SDS011;6700;51.988;7.646;2023-09-07T11:08:30;4.10;;;3.70;;
13263;SDS011;6700;51.988;7.646;2023-09-07T11:10:59;5.22;;;4.05;;
13263;SDS011;6700;51.988;7.646;2023-09-07T11:13:27;4.90;;;4.00;;
13263;SDS011;6700;51.988;7.646;2023-09-07T11:15:56;3.53;;;3.22;;
13263;SDS011;6700;51.988;7.646;2023-09-07T11:18:24;4.05;;;3.60;;
13263;SDS011;6700;51.988;7.646;2023-09-07T11:20:53;4.20;;;3.80;;
13263;SDS011;6700;51.988;7.646;2023-09-07T11:23:21;5.47;;;3.75;;
13263;SDS011;6700;51.988;7.646;2023-09-07T11:25:51;5.90;;;3.63;;
13263;SDS011;6700;51.988;7.646;2023-09-07T11:28:19;4.22;;;3.83;;
13263;SDS011;6700;51.988;7.646;2023-09-07T11:30:53;3.50;;;3.20;;
13263;SDS011;6700;51.988;7.646;2023-09-07T11:33:22;8.88;;;4.22;;
13263;SDS011;6700;51.988;7.646;2023-09-07T11:35:50;4.63;;;4.20;;
13263;SDS011;6700;51.988;7.646;2023-09-07T11:38:18;4.65;;;3.65;;
13263;SDS011;6700;51.988;7.646;2023-09-07T11:40:47;6.03;;;3.90;;
13263;SDS011;6700;51.988;7.646;2023-09-07T11:43:15;4.22;;;3.83;;
13263;SDS011;6700;51.988;7.646;2023-09-07T11:45:43;5.07;;;4.60;;
13263;SDS011;6700;51.988;7.646;2023-09-07T11:48:11;3.58;;;3.28;;
13263;SDS011;6700;51.988;7.646;2023-09-07T11:50:39;10.77;;;3.83;;
13263;SDS011;6700;51.988;7.646;2023-09-07T11:53:06;4.70;;;3.33;;
13263;SDS011;6700;51.988;7.646;2023-09-07T11:55:34;4.85;;;3.40;;
13263;SDS011;6700;51.988;7.646;2023-09-07T11:58:02;4.15;;;3.85;;
13263;SDS011;6700;51.988;7.646;2023-09-07T12:00:29;3.72;;;3.42;;
13263;SDS011;6700;51.988;7.646;2023-09-07T12:02:58;3.65;;;3.35;;
13263;SDS011;6700;51.988;7.646;2023-09-07T12:05:26;3.80;;;3.40;;
13263;SDS011;6700;51.988;7.646;2023-09-07T12:07:53;4.43;;;3.50;;
13263;SDS011;6700;51.988;7.646;2023-09-07T12:10:20;4.03;;;3.63;;
13263;SDS011;6700;51.988;7.646;2023-09-07T12:12:48;4.65;;;3.55;;
13263;SDS011;6700;51.988;7.646;2023-09-07T12:15:15;4.63;;;3.83;;
13263;SDS011;6700;51.988;7.646;2023-09-07T12:17:42;3.50;;;3.20;;
13263;SDS011;6700;51.988;7.646;2023-09-07T12:20:10;3.72;;;3.33;;
13263;SDS011;6700;51.988;7.646;2023-09-07T12:22:39;3.72;;;3.42;;
13263;SDS011;6700;51.988;7.646;2023-09-07T12:25:10;4.57;;;4.05;;
13263;SDS011;6700;51.988;7.646;2023-09-07T12:27:41;5.15;;;3.90;;
13263;SDS011;6700;51.988;7.646;2023-09-07T12:30:20;3.65;;;3.30;;
13263;SDS011;6700;51.988;7.646;2023-09-07T12:32:50;4.32;;;3.90;;
13263;SDS011;6700;51.988;7.646;2023-09-07T12:35:18;4.55;;;3.65;;
13263;SDS011;6700;51.988;7.646;2023-09-07T12:37:47;4.03;;;3.63;;
13263;SDS011;6700;51.988;7.646;2023-09-07T12:40:19;3.72;;;3.33;;
13263;SDS011;6700;51.988;7.646;2023-09-07T12:42:47;4.35;;;3.13;;
13263;SDS011;6700;51.988;7.646;2023-09-07T12:45:14;6.22;;;3.55;;
13263;SDS011;6700;51.988;7.646;2023-09-07T12:47:41;4.78;;;3.25;;
13263;SDS011;6700;51.988;7.646;2023-09-07T12:50:10;6.13;;;3.33;;
13263;SDS011;6700;51.988;7.646;2023-09-07T12:52:38;3.75;;;3.40;;
13263;SDS011;6700;51.988;7.646;2023-09-07T12:55:05;3.72;;;3.33;;
13263;SDS011;6700;51.988;7.646;2023-09-07T12:57:33;3.78;;;3.47;;
13263;SDS011;6700;51.988;7.646;2023-09-07T13:00:03;3.88;;;3.58;;
13263;SDS011;6700;51.988;7.646;2023-09-07T13:02:30;5.32;;;3.60;;
13263;SDS011;6700;51.988;7.646;2023-09-07T13:05:02;8.55;;;3.75;;
13263;SDS011;6700;51.988;7.646;2023-09-07T13:07:32;4.28;;;3.63;;
13263;SDS011;6700;51.988;7.646;2023-09-07T13:10:01;4.70;;;3.50;;
13263;SDS011;6700;51.988;7.646;2023-09-07T13:12:31;3.80;;;3.45;;
13263;SDS011;6700;51.988;7.646;2023-09-07T13:14:58;4.55;;;3.85;;
13263;SDS011;6700;51.988;7.646;2023-09-07T13:17:27;3.83;;;3.33;;
13263;SDS011;6700;51.988;7.646;2023-09-07T13:19:54;3.88;;;3.40;;
13263;SDS011;6700;51.988;7.646;2023-09-07T13:22:22;5.25;;;4.00;;
13263;SDS011;6700;51.988;7.646;2023-09-07T13:24:49;5.32;;;2.88;;
13263;SDS011;6700;51.988;7.646;2023-09-07T13:27:16;4.57;;;3.88;;
13263;SDS011;6700;51.988;7.646;2023-09-07T13:29:43;3.45;;;3.15;;
13263;SDS011;6700;51.988;7.646;2023-09-07T13:32:11;4.32;;;3.92;;
13263;SDS011;6700;51.988;7.646;2023-09-07T13:34:39;3.30;;;3.00;;
13263;SDS011;6700;51.988;7.646;2023-09-07T13:37:07;3.58;;;3.28;;
13263;SDS011;6700;51.988;7.646;2023-09-07T13:39:34;3.60;;;3.10;;
13263;SDS011;6700;51.988;7.646;2023-09-07T13:42:01;5.00;;;3.60;;
13263;SDS011;6700;51.988;7.646;2023-09-07T13:44:29;3.65;;;3.30;;
13263;SDS011;6700;51.988;7.646;2023-09-07T13:46:56;4.70;;;3.25;;
13263;SDS011;6700;51.988;7.646;2023-09-07T13:49:23;3.55;;;3.25;;
13263;SDS011;6700;51.988;7.646;2023-09-07T13:51:51;3.53;;;3.10;;
13263;SDS011;6700;51.988;7.646;2023-09-07T13:54:18;4.45;;;3.58;;
13263;SDS011;6700;51.988;7.646;2023-09-07T13:56:46;4.05;;;3.42;;
13263;SDS011;6700;51.988;7.646;2023-09-07T13:59:13;4.13;;;3.55;;
13263;SDS011;6700;51.988;7.646;2023-09-07T14:01:43;4.93;;;3.45;;
13263;SDS011;6700;51.988;7.646;2023-09-07T14:04:10;3.95;;;3.17;;
13263;SDS011;6700;51.988;7.646;2023-09-07T14:06:37;3.20;;;2.90;;
13263;SDS011;6700;51.988;7.646;2023-09-07T14:09:05;6.22;;;3.58;;
13263;SDS011;6700;51.988;7.646;2023-09-07T14:11:33;3.42;;;3.03;;
13263;SDS011;6700;51.988;7.646;2023-09-07T14:14:00;4.15;;;3.60;;
13263;SDS011;6700;51.988;7.646;2023-09-07T14:16:27;4.80;;;3.30;;
13263;SDS011;6700;51.988;7.646;2023-09-07T14:18:54;5.47;;;2.90;;
13263;SDS011;6700;51.988;7.646;2023-09-07T14:21:21;3.53;;;3.22;;
13263;SDS011;6700;51.988;7.646;2023-09-07T14:23:49;3.70;;;3.40;;
13263;SDS011;6700;51.988;7.646;2023-09-07T14:26:16;3.95;;;3.50;;
13263;SDS011;6700;51.988;7.646;2023-09-07T14:28:43;3.50;;;3.20;;
13263;SDS011;6700;51.988;7.646;2023-09-07T14:31:12;4.25;;;3.50;;
13263;SDS011;6700;51.988;7.646;2023-09-07T14:33:39;4.70;;;3.08;;
13263;SDS011;6700;51.988;7.646;2023-09-07T14:36:09;4.65;;;3.58;;
13263;SDS011;6700;51.988;7.646;2023-09-07T14:38:36;4.22;;;3.30;;
13263;SDS011;6700;51.988;7.646;2023-09-07T14:41:08;5.00;;;3.30;;
13263;SDS011;6700;51.988;7.646;2023-09-07T14:43:45;4.28;;;3.22;;
13263;SDS011;6700;51.988;7.646;2023-09-07T14:46:13;7.63;;;4.05;;
13263;SDS011;6700;51.988;7.646;2023-09-07T14:48:41;5.60;;;3.65;;
13263;SDS011;6700;51.988;7.646;2023-09-07T14:51:09;4.70;;;3.55;;
13263;SDS011;6700;51.988;7.646;2023-09-07T14:53:38;3.47;;;3.08;;
13263;SDS011;6700;51.988;7.646;2023-09-07T14:56:06;3.83;;;3.28;;
13263;SDS011;6700;51.988;7.646;2023-09-07T14:58:33;4.20;;;3.80;;
13263;SDS011;6700;51.988;7.646;2023-09-07T15:01:01;4.57;;;3.63;;
13263;SDS011;6700;51.988;7.646;2023-09-07T15:03:29;7.30;;;2.90;;
13263;SDS011;6700;51.988;7.646;2023-09-07T15:05:57;12.15;;;4.53;;
13263;SDS011;6700;51.988;7.646;2023-09-07T15:08:26;3.50;;;2.95;;
13263;SDS011;6700;51.988;7.646;2023-09-07T15:10:53;7.40;;;4.25;;